Time;durP1;ratioP1;P1;durP2;ratioP2;P2;SDS_P1;SDS_P2;PMS_P1;PMS_P2;Temp;Humidity;BMP_temperature;BMP_pressure;BME280_temperature;BME280_humidity;BME280_pressure;Samples;Min_cycle;Max_cycle;Signal;HPM_P1;HPM_P2
2023/09/22 00:00:14;;;;;;;0.70;0.47;;;14.70;99.90;;;14.43;100.00;95996.91;5024334;28;20395;-41
2023/09/22 00:02:42;;;;;;;1.52;0.50;;;14.60;99.90;;;14.42;100.00;96000.53;5023700;28;20645;-41
2023/09/22 00:05:09;;;;;;;1.60;0.50;;;14.60;99.90;;;14.40;100.00;96005.09;5027305;28;20032;-40
2023/09/22 00:07:37;;;;;;;2.30;0.70;;;14.60;99.90;;;14.37;100.00;96000.00;5018623;28;20025;-40
2023/09/22 00:10:04;;;;;;;1.27;0.60;;;14.50;99.90;;;14.32;100.00;96006.50;5028541;28;20479;-41
2023/09/22 00:12:31;;;;;;;2.00;0.60;;;14.50;99.90;;;14.32;100.00;96003.03;5029149;28;20385;-42
2023/09/22 00:14:58;;;;;;;1.20;0.50;;;14.50;99.90;;;14.29;100.00;96013.84;5032759;28;20035;-41
2023/09/22 00:17:25;;;;;;;0.70;0.40;;;14.50;99.90;;;14.25;100.00;96017.69;5023252;28;20024;-40
2023/09/22 00:19:51;;;;;;;1.58;0.60;;;14.50;99.90;;;14.23;100.00;96007.19;5028239;28;20535;-40
2023/09/22 00:22:16;;;;;;;0.93;0.55;;;14.40;99.90;;;14.20;100.00;96010.06;5026294;28;20068;-41
2023/09/22 00:24:42;;;;;;;1.17;0.57;;;14.40;99.90;;;14.15;100.00;96000.75;5028821;28;20070;-40
2023/09/22 00:27:08;;;;;;;3.97;0.65;;;14.40;99.90;;;14.10;100.00;95999.31;5026774;28;20037;-41
2023/09/22 00:29:34;;;;;;;2.28;0.60;;;14.30;99.90;;;14.10;100.00;95995.78;5025606;28;20037;-41
2023/09/22 00:32:00;;;;;;;0.52;0.40;;;14.30;99.90;;;14.08;100.00;95987.94;5023150;28;20035;-42
2023/09/22 00:34:25;;;;;;;1.27;0.60;;;14.30;99.90;;;14.02;100.00;95976.97;5018517;28;20040;-40
2023/09/22 00:36:56;;;;;;;1.55;0.80;;;14.30;99.90;;;14.01;100.00;95964.66;5028646;28;20033;-41
2023/09/22 00:39:22;;;;;;;1.85;0.65;;;14.20;99.90;;;13.96;100.00;95961.50;5030046;28;20040;-40
2023/09/22 00:41:48;;;;;;;1.63;0.63;;;14.20;99.90;;;13.92;100.00;95979.44;5031994;28;20032;-40
2023/09/22 00:44:13;;;;;;;1.30;0.70;;;14.20;99.90;;;13.88;100.00;95985.91;5026778;28;20484;-40
2023/09/22 00:46:39;;;;;;;0.50;0.40;;;14.10;99.90;;;13.89;100.00;95999.06;5029741;28;20474;-40
2023/09/22 00:49:07;;;;;;;1.08;0.60;;;14.10;99.90;;;13.88;100.00;96013.25;5027583;28;20064;-41
2023/09/22 00:51:33;;;;;;;2.17;0.75;;;14.10;99.90;;;13.87;100.00;96031.91;5015332;28;20128;-42
2023/09/22 00:54:00;;;;;;;1.08;0.70;;;14.10;99.90;;;13.85;100.00;96029.38;5012384;28;20033;-40
2023/09/22 00:56:26;;;;;;;1.67;0.77;;;14.10;99.90;;;13.87;100.00;96024.81;5030822;28;20311;-41
2023/09/22 00:58:52;;;;;;;1.77;0.60;;;14.10;99.90;;;13.77;100.00;96026.44;5009251;28;20091;-40
2023/09/22 01:01:20;;;;;;;1.92;0.60;;;14.00;99.90;;;13.65;100.00;96012.25;5005186;28;20041;-41
2023/09/22 01:03:48;;;;;;;1.15;0.70;;;14.00;99.90;;;13.71;100.00;96027.72;5028395;28;20119;-41
2023/09/22 01:06:14;;;;;;;0.70;0.60;;;14.00;99.90;;;13.69;100.00;96023.47;5008677;28;20421;-41
2023/09/22 01:08:40;;;;;;;0.80;0.70;;;13.90;99.90;;;13.53;100.00;96013.13;5027442;28;20110;-41
2023/09/22 01:11:06;;;;;;;0.93;0.68;;;13.90;99.90;;;13.61;100.00;96020.53;5028599;28;20079;-41
2023/09/22 01:13:31;;;;;;;1.50;0.68;;;13.90;99.90;;;13.59;100.00;95995.97;5032322;28;20087;-41
2023/09/22 01:15:57;;;;;;;1.25;0.73;;;13.80;99.90;;;13.55;100.00;95985.59;5027180;28;20992;-40
2023/09/22 01:18:23;;;;;;;1.45;0.90;;;13.80;99.90;;;13.52;100.00;95996.41;5013325;28;20041;-40
2023/09/22 01:20:49;;;;;;;1.52;0.60;;;13.80;99.90;;;13.50;100.00;95995.66;5033045;28;20033;-41
2023/09/22 01:23:15;;;;;;;1.52;0.68;;;13.80;99.90;;;13.49;100.00;95996.59;5032987;28;20061;-40
2023/09/22 01:25:42;;;;;;;2.20;0.70;;;13.70;99.90;;;13.45;100.00;95983.72;5032457;28;20501;-40
2023/09/22 01:28:10;;;;;;;1.45;0.70;;;13.70;99.90;;;13.42;100.00;95983.91;5033231;28;20037;-40
2023/09/22 01:30:36;;;;;;;1.88;0.63;;;13.70;99.90;;;13.42;100.00;95973.31;5030660;28;20144;-42
2023/09/22 01:33:03;;;;;;;2.35;0.77;;;13.70;99.90;;;13.36;100.00;95969.31;5030043;28;20048;-40
2023/09/22 01:35:32;;;;;;;1.13;0.70;;;13.60;99.90;;;13.34;100.00;95992.41;5028137;28;20044;-41
2023/09/22 01:38:10;;;;;;;1.52;0.80;;;13.60;99.90;;;13.28;100.00;96003.38;5031271;28;20060;-38
2023/09/22 01:40:36;;;;;;;2.72;0.90;;;13.50;99.90;;;13.20;100.00;96000.44;5032774;28;20166;-38
2023/09/22 01:43:02;;;;;;;0.85;0.65;;;13.50;99.90;;;13.07;100.00;96001.28;5031450;28;20045;-38
2023/09/22 01:45:27;;;;;;;1.25;0.75;;;13.40;99.90;;;13.14;100.00;96007.84;5025643;28;20043;-38
2023/09/22 01:47:53;;;;;;;0.90;0.57;;;13.50;99.90;;;12.90;100.00;95972.50;5028780;28;20029;-38
2023/09/22 01:50:19;;;;;;;1.33;0.73;;;13.40;99.90;;;13.11;100.00;96009.84;5031213;28;20143;-38
2023/09/22 01:52:45;;;;;;;3.05;0.70;;;13.40;99.90;;;13.10;100.00;96014.31;5036044;28;20033;-38
2023/09/22 01:55:11;;;;;;;1.20;0.80;;;13.30;99.90;;;13.05;100.00;96008.50;5031571;28;20275;-38
2023/09/22 01:57:37;;;;;;;1.98;0.88;;;13.30;99.90;;;12.95;100.00;95991.53;5032880;28;20068;-39
2023/09/22 02:00:05;;;;;;;2.60;0.70;;;13.20;99.90;;;12.89;100.00;95992.81;5032173;28;20033;-38
2023/09/22 02:02:32;;;;;;;1.48;0.90;;;13.20;99.90;;;12.84;100.00;95994.09;5026285;28;20032;-38
2023/09/22 02:04:59;;;;;;;1.63;0.73;;;13.10;99.90;;;12.83;100.00;95987.09;5024026;28;20021;-39
2023/09/22 02:07:25;;;;;;;1.63;0.77;;;13.10;99.90;;;12.77;100.00;95978.63;5030951;28;20112;-39
2023/09/22 02:09:51;;;;;;;0.80;0.60;;;13.10;99.90;;;12.75;100.00;95988.47;5034284;28;20530;-40
2023/09/22 02:12:16;;;;;;;2.33;0.90;;;13.10;99.90;;;12.74;100.00;95989.44;5033331;28;20032;-40
2023/09/22 02:14:42;;;;;;;1.25;0.88;;;13.10;99.90;;;12.67;100.00;95969.63;5025173;28;20044;-41
2023/09/22 02:17:08;;;;;;;1.25;0.60;;;13.00;99.90;;;12.74;100.00;95978.84;5024847;28;20325;-41
2023/09/22 02:19:38;;;;;;;1.27;0.82;;;13.10;99.90;;;12.74;100.00;95991.19;5031365;28;20036;-41
2023/09/22 02:22:05;;;;;;;1.10;0.70;;;13.00;99.90;;;12.75;100.00;95988.47;5029750;28;20501;-42
2023/09/22 02:24:40;;;;;;;1.30;0.80;;;13.00;99.90;;;12.75;100.00;95992.91;5033996;28;20476;-41
2023/09/22 02:27:06;;;;;;;2.05;0.77;;;13.10;99.90;;;12.71;100.00;95986.97;5013829;28;20047;-41
2023/09/22 02:29:31;;;;;;;0.68;0.60;;;13.00;99.90;;;12.80;100.00;96006.69;5029932;28;20041;-41
2023/09/22 02:31:57;;;;;;;1.98;1.00;;;13.10;99.90;;;12.80;100.00;96010.16;5025335;28;20126;-40
2023/09/22 02:34:23;;;;;;;1.52;0.70;;;13.10;99.90;;;12.73;100.00;95995.66;5029831;28;20048;-40
2023/09/22 02:36:48;;;;;;;1.02;0.73;;;13.10;99.90;;;12.82;100.00;96009.22;5032663;28;20077;-40
2023/09/22 02:39:17;;;;;;;1.85;0.80;;;13.10;99.90;;;12.83;100.00;96000.31;5026938;28;20452;-41
2023/09/22 02:41:44;;;;;;;0.93;0.80;;;13.10;99.90;;;12.80;100.00;95996.09;5029457;28;20116;-41
2023/09/22 02:44:10;;;;;;;1.70;0.60;;;13.10;99.90;;;12.79;100.00;96000.56;5025383;28;20540;-41
2023/09/22 02:46:36;;;;;;;0.77;0.60;;;13.10;99.90;;;12.82;100.00;96014.50;5028144;28;20029;-39
2023/09/22 02:49:02;;;;;;;0.95;0.70;;;13.10;99.90;;;12.82;100.00;96022.44;5031559;28;20028;-41
2023/09/22 02:51:27;;;;;;;1.67;0.65;;;13.10;99.90;;;12.79;100.00;96024.34;5010392;28;20037;-41
2023/09/22 02:53:56;;;;;;;2.08;0.88;;;13.10;99.90;;;12.77;100.00;96028.88;5030137;28;20040;-39
2023/09/22 02:56:22;;;;;;;1.05;0.85;;;13.10;99.90;;;12.76;100.00;96029.00;5031395;28;20409;-40
2023/09/22 02:58:48;;;;;;;3.60;0.88;;;13.00;99.90;;;12.75;100.00;96017.56;5030880;28;20037;-41
2023/09/22 03:01:14;;;;;;;0.68;0.68;;;13.10;99.90;;;12.72;100.00;96012.50;5028200;28;20378;-40
2023/09/22 03:03:44;;;;;;;0.77;0.60;;;13.00;99.90;;;12.74;100.00;95999.16;5029402;28;20036;-40
2023/09/22 03:06:11;;;;;;;0.68;0.60;;;13.10;99.90;;;12.77;100.00;95991.84;5026290;28;20029;-40
2023/09/22 03:08:37;;;;;;;1.48;0.93;;;13.10;99.90;;;12.76;100.00;95992.81;5033510;28;20044;-41
2023/09/22 03:11:02;;;;;;;1.17;0.70;;;13.10;99.90;;;12.75;100.00;95977.88;5030314;28;20029;-41
2023/09/22 03:13:28;;;;;;;1.00;0.70;;;13.10;99.90;;;12.75;100.00;95980.53;5030705;28;20037;-42
2023/09/22 03:15:55;;;;;;;1.00;0.60;;;13.00;99.90;;;12.75;100.00;95999.03;5031409;28;20067;-41
2023/09/22 03:18:20;;;;;;;0.60;0.52;;;13.00;99.90;;;12.77;100.00;96007.72;5034008;28;20696;-40
2023/09/22 03:20:46;;;;;;;1.00;0.77;;;13.10;99.90;;;12.75;100.00;96006.13;5033669;28;20033;-41
2023/09/22 03:23:13;;;;;;;2.00;0.80;;;13.00;99.90;;;12.75;100.00;96006.13;5036431;28;20602;-40
2023/09/22 03:25:39;;;;;;;0.90;0.68;;;13.10;99.90;;;12.74;100.00;96013.25;5028495;28;20025;-40
2023/09/22 03:28:05;;;;;;;1.98;0.82;;;13.00;99.90;;;12.75;100.00;96016.72;5027779;28;20155;-42
2023/09/22 03:30:31;;;;;;;1.30;0.70;;;13.00;99.90;;;12.74;100.00;96007.94;5025900;28;20031;-41
2023/09/22 03:32:58;;;;;;;1.55;0.82;;;13.00;99.90;;;12.75;100.00;95999.03;5025835;28;20724;-40
2023/09/22 03:35:25;;;;;;;1.90;0.80;;;13.00;99.90;;;12.76;100.00;96013.97;5025581;28;20037;-42
2023/09/22 03:37:52;;;;;;;1.15;0.73;;;13.10;99.90;;;12.70;100.00;96039.97;5023466;28;22124;-41
2023/09/22 03:40:30;;;;;;;0.70;0.57;;;13.00;99.90;;;12.76;100.00;96053.66;5028769;28;20473;-40
2023/09/22 03:42:58;;;;;;;1.27;0.77;;;13.10;99.90;;;12.77;100.00;96065.06;5026954;28;20025;-41
2023/09/22 03:45:24;;;;;;;3.30;0.75;;;13.10;99.90;;;12.74;100.00;96063.50;5020708;28;20111;-43
2023/09/22 03:47:50;;;;;;;1.48;0.70;;;13.10;99.90;;;12.67;100.00;96056.06;5024369;28;20723;-40
2023/09/22 03:50:15;;;;;;;0.70;0.70;;;13.10;99.90;;;12.77;100.00;96081.78;5027724;28;20056;-40
2023/09/22 03:52:42;;;;;;;1.20;0.70;;;13.10;99.90;;;12.77;100.00;96073.84;5024051;28;20540;-41
2023/09/22 03:55:09;;;;;;;1.35;0.90;;;13.10;99.90;;;12.78;100.00;96070.25;5027781;28;20455;-41
2023/09/22 03:57:35;;;;;;;1.23;0.80;;;13.10;99.90;;;12.83;100.00;96053.22;5025149;28;20061;-40
2023/09/22 04:00:01;;;;;;;0.90;0.77;;;13.10;99.90;;;12.82;100.00;96049.75;5030039;28;20144;-41
2023/09/22 04:02:27;;;;;;;2.63;1.00;;;13.10;99.90;;;12.88;100.00;96045.84;5027471;28;20033;-41
2023/09/22 04:04:54;;;;;;;1.48;0.88;;;13.20;99.90;;;12.91;100.00;96038.53;5027030;28;20133;-41
2023/09/22 04:07:19;;;;;;;0.65;0.60;;;13.20;99.90;;;12.92;100.00;96018.19;5034661;28;20021;-39
2023/09/22 04:09:45;;;;;;;1.48;0.75;;;13.20;99.90;;;12.94;100.00;96011.03;5027491;28;20025;-41
2023/09/22 04:12:11;;;;;;;1.08;0.80;;;13.20;99.90;;;12.94;100.00;96022.47;5029319;28;20111;-41
2023/09/22 04:14:37;;;;;;;1.92;0.80;;;13.20;99.90;;;12.95;100.00;96020.66;5022174;28;20089;-41
2023/09/22 04:17:03;;;;;;;1.38;0.80;;;13.30;99.90;;;12.96;100.00;96003.84;5024171;28;20382;-40
2023/09/22 04:19:33;;;;;;;1.75;0.90;;;13.30;99.90;;;12.99;100.00;96011.53;5024091;28;20176;-41
2023/09/22 04:22:00;;;;;;;3.55;1.02;;;13.30;99.90;;;13.00;100.00;96013.25;5024236;28;20035;-41
2023/09/22 04:24:31;;;;;;;1.48;0.98;;;13.30;99.90;;;13.03;100.00;96031.56;5029174;28;20079;-40
2023/09/22 04:27:01;;;;;;;0.90;0.70;;;13.30;99.90;;;13.03;100.00;96028.94;5016559;28;20025;-40
2023/09/22 04:29:27;;;;;;;0.98;0.70;;;13.30;99.90;;;13.06;100.00;96027.84;5005819;28;20637;-43
2023/09/22 04:31:52;;;;;;;1.08;0.80;;;13.30;99.90;;;13.07;100.00;96033.03;5014241;28;20025;-41
2023/09/22 04:34:21;;;;;;;3.78;0.88;;;13.40;99.90;;;13.07;100.00;96027.75;5018408;28;20037;-40
2023/09/22 04:36:47;;;;;;;0.73;0.68;;;13.40;99.90;;;13.05;100.00;96034.97;5023656;28;20038;-41
2023/09/22 04:39:14;;;;;;;1.05;0.80;;;13.40;99.90;;;13.10;100.00;96029.31;5018659;28;20512;-40
2023/09/22 04:41:40;;;;;;;1.58;0.93;;;13.40;99.90;;;13.12;100.00;96023.00;5017720;28;20520;-41
2023/09/22 04:44:07;;;;;;;1.90;0.85;;;13.40;99.90;;;13.12;100.00;96020.34;5021412;28;20044;-41
2023/09/22 04:46:33;;;;;;;1.42;0.80;;;13.40;99.90;;;12.92;100.00;95994.41;5025665;28;20033;-39
2023/09/22 04:48:59;;;;;;;2.67;0.82;;;13.40;99.90;;;13.13;100.00;96032.59;5012017;28;20029;-40
2023/09/22 04:51:27;;;;;;;1.83;0.70;;;13.40;99.90;;;13.12;100.00;96025.63;5027377;28;20452;-41
2023/09/22 04:53:53;;;;;;;2.50;0.88;;;13.40;99.90;;;13.10;100.00;96013.44;5015695;28;20068;-39
2023/09/22 04:56:21;;;;;;;1.92;0.82;;;13.40;99.90;;;13.12;100.00;96020.34;5036428;28;20470;-40
2023/09/22 04:58:47;;;;;;;2.45;0.70;;;13.40;99.90;;;13.11;100.00;96033.69;5035148;28;20036;-41
2023/09/22 05:01:14;;;;;;;1.42;0.90;;;13.40;99.90;;;13.08;100.00;96021.53;5035973;28;20436;-40
2023/09/22 05:03:40;;;;;;;0.85;0.70;;;13.40;99.90;;;13.11;100.00;96037.16;5035416;28;20323;-40
2023/09/22 05:06:09;;;;;;;1.40;0.80;;;13.40;99.90;;;12.86;100.00;95993.03;5036721;28;20032;-39
2023/09/22 05:08:38;;;;;;;2.13;0.98;;;13.40;99.90;;;12.98;100.00;96002.75;5031189;28;20731;-39
2023/09/22 05:11:05;;;;;;;1.75;0.85;;;13.40;99.90;;;13.08;100.00;96028.59;5033669;28;20477;-39
2023/09/22 05:13:32;;;;;;;3.78;0.75;;;13.40;99.90;;;13.09;100.00;96033.78;5033517;28;20055;-39
2023/09/22 05:16:14;;;;;;;0.85;0.65;;;13.40;99.90;;;13.09;100.00;96043.53;5028827;28;20063;-40
2023/09/22 05:18:40;;;;;;;0.85;0.70;;;13.40;99.90;;;13.07;100.00;96040.97;5031101;28;20037;-39
2023/09/22 05:21:09;;;;;;;2.10;0.70;;;13.40;99.90;;;12.72;100.00;95980.75;5020213;28;20535;-41
2023/09/22 05:23:36;;;;;;;2.08;0.93;;;13.40;99.90;;;13.11;100.00;96045.09;5032600;28;20029;-41
2023/09/22 05:27:00;;;;;;;1.67;0.70;;;13.40;99.90;;;13.09;100.00;96051.47;5034696;28;20032;-39
2023/09/22 05:29:25;;;;;;;2.10;0.90;;;13.40;99.90;;;13.08;100.00;96061.22;5033013;28;21020;-39
2023/09/22 05:31:51;;;;;;;2.58;1.20;;;13.40;99.90;;;13.06;100.00;96063.09;5038663;28;20048;-41
2023/09/22 05:34:19;;;;;;;1.27;0.80;;;13.40;99.90;;;13.11;100.00;96076.88;5036605;28;20025;-41
2023/09/22 05:36:44;;;;;;;1.83;1.05;;;13.40;99.90;;;13.11;100.00;96084.81;5038610;28;20029;-41
2023/09/22 05:39:12;;;;;;;1.77;0.85;;;13.40;99.90;;;13.12;100.00;96091.81;5036916;28;20036;-41
2023/09/22 05:41:37;;;;;;;1.80;1.00;;;13.50;99.90;;;13.11;100.00;96100.69;5025436;28;20021;-39
2023/09/22 05:44:04;;;;;;;1.52;0.85;;;13.50;99.90;;;13.14;100.00;96102.28;5027949;28;20425;-39
2023/09/22 05:46:31;;;;;;;1.77;0.90;;;13.40;99.90;;;13.14;100.00;96104.94;5028768;28;20358;-39
2023/09/22 05:48:57;;;;;;;1.40;0.70;;;13.50;99.90;;;13.14;100.00;96104.94;5029660;28;20032;-41
2023/09/22 05:51:23;;;;;;;4.35;1.45;;;13.50;99.90;;;13.13;100.00;96104.06;5029991;28;20079;-41
2023/09/22 05:53:52;;;;;;;2.10;1.20;;;13.50;99.90;;;13.15;100.00;96110.13;5030944;28;20029;-41
2023/09/22 05:56:17;;;;;;;1.85;0.80;;;13.50;99.90;;;13.11;100.00;96107.78;5027233;28;20041;-39
2023/09/22 05:58:44;;;;;;;2.35;1.23;;;13.50;99.90;;;13.13;100.00;96117.31;5027726;28;20087;-40
2023/09/22 06:01:12;;;;;;;0.95;0.70;;;13.50;99.90;;;13.14;100.00;96124.31;5005550;28;20033;-39
2023/09/22 06:03:39;;;;;;;1.95;1.00;;;13.50;99.90;;;13.23;100.00;96129.94;5029640;28;20497;-39
2023/09/22 06:06:12;;;;;;;2.55;1.00;;;13.60;99.90;;;13.28;100.00;96126.03;5025798;28;20033;-40
2023/09/22 06:08:40;;;;;;;1.42;0.90;;;13.60;99.90;;;13.30;100.00;96118.81;5030003;28;20067;-39
2023/09/22 06:11:07;;;;;;;1.20;0.80;;;13.60;99.90;;;13.36;100.00;96129.00;5037762;28;20039;-40
2023/09/22 06:13:33;;;;;;;0.70;0.60;;;13.70;99.90;;;13.21;100.00;96100.94;5035288;28;20435;-39
2023/09/22 06:16:00;;;;;;;1.83;0.95;;;13.70;99.90;;;13.42;100.00;96142.78;5036431;28;20064;-41
2023/09/22 06:18:26;;;;;;;2.08;0.95;;;13.70;99.90;;;13.40;100.00;96150.84;5037128;28;20389;-40
2023/09/22 06:20:59;;;;;;;0.90;0.80;;;13.70;99.90;;;13.41;100.00;96149.91;5040078;28;20025;-39
2023/09/22 06:23:26;;;;;;;2.30;1.33;;;13.70;99.90;;;13.43;100.00;96145.34;5040162;28;20389;-39
2023/09/22 06:25:54;;;;;;;1.58;0.95;;;13.80;99.90;;;13.43;100.00;96147.16;5023009;28;20129;-39
2023/09/22 06:28:20;;;;;;;1.30;0.80;;;13.70;99.90;;;13.43;100.00;96157.75;5035096;28;20044;-40
2023/09/22 06:30:47;;;;;;;1.38;0.88;;;13.80;99.90;;;13.40;100.00;96153.47;5036761;28;20024;-39
2023/09/22 06:33:16;;;;;;;1.15;0.70;;;13.80;99.90;;;13.43;100.00;96163.88;5039600;28;20041;-39
2023/09/22 06:35:46;;;;;;;2.35;0.85;;;13.80;99.90;;;13.43;100.00;96155.09;5038810;28;20492;-41
2023/09/22 06:38:16;;;;;;;3.17;0.80;;;13.80;99.90;;;13.43;100.00;96137.41;5041465;28;20060;-40
2023/09/22 06:40:44;;;;;;;1.08;0.80;;;13.80;99.90;;;13.45;100.00;96146.06;5041734;28;20033;-40
2023/09/22 06:43:11;;;;;;;2.70;0.90;;;13.80;99.90;;;13.46;100.00;96150.44;5041518;28;20111;-39
2023/09/22 06:45:38;;;;;;;1.95;0.90;;;13.80;99.90;;;13.43;100.00;96134.75;5039429;28;20029;-40
2023/09/22 06:48:05;;;;;;;1.50;0.80;;;13.80;99.90;;;13.60;100.00;96138.88;5039462;28;20091;-40
2023/09/22 06:50:40;;;;;;;1.65;1.00;;;14.00;99.90;;;13.74;100.00;96148.53;5038160;28;20078;-39
2023/09/22 06:53:06;;;;;;;5.45;0.90;;;14.10;99.90;;;13.85;100.00;96151.25;5042851;28;20592;-39
2023/09/22 06:55:33;;;;;;;2.00;0.80;;;14.10;99.90;;;13.87;100.00;96144.06;5035214;28;20059;-42
2023/09/22 06:57:59;;;;;;;1.23;0.73;;;14.20;99.90;;;14.01;100.00;96145.72;5036171;28;20041;-42
2023/09/22 07:00:28;;;;;;;2.58;0.88;;;14.30;99.90;;;14.09;100.00;96131.97;5038468;28;20040;-40
2023/09/22 07:02:55;;;;;;;1.05;0.73;;;14.40;99.90;;;14.15;100.00;96118.25;5038144;28;20396;-40
2023/09/22 07:05:21;;;;;;;1.15;0.80;;;14.50;99.90;;;14.19;100.00;96125.00;5040468;28;20528;-40
2023/09/22 07:07:49;;;;;;;0.93;0.70;;;14.50;99.90;;;14.28;100.00;96134.13;5038177;28;20039;-40
2023/09/22 07:10:16;;;;;;;1.20;0.80;;;14.50;99.90;;;14.29;100.00;96139.31;5040325;28;20387;-39
2023/09/22 07:12:42;;;;;;;1.05;0.75;;;14.60;99.90;;;14.30;100.00;96126.88;5041472;28;20869;-37
2023/09/22 07:15:10;;;;;;;1.05;0.70;;;14.60;99.90;;;14.33;100.00;96124.03;5037960;28;20028;-37
2023/09/22 07:17:36;;;;;;;1.73;0.80;;;14.70;99.90;;;14.32;100.00;96125.84;5019699;28;20112;-37
2023/09/22 07:20:04;;;;;;;0.93;0.60;;;14.70;99.90;;;14.38;100.00;96129.00;5036265;28;20676;-40
2023/09/22 07:22:33;;;;;;;1.70;0.70;;;14.70;99.90;;;14.36;100.00;96113.22;5036438;28;20053;-40
2023/09/22 07:25:03;;;;;;;3.28;0.82;;;14.70;99.90;;;14.45;100.00;96136.41;5035631;28;20036;-41
2023/09/22 07:27:29;;;;;;;3.55;0.70;;;14.80;99.90;;;14.47;100.00;96138.94;5036575;28;20240;-39
2023/09/22 07:29:54;;;;;;;1.17;0.70;;;14.80;99.90;;;14.48;100.00;96151.22;5040398;28;20037;-40
2023/09/22 07:32:20;;;;;;;3.03;0.80;;;14.80;99.90;;;14.49;100.00;96155.59;5036115;28;20021;-39
2023/09/22 07:34:48;;;;;;;0.70;0.70;;;14.80;99.90;;;14.48;100.00;96145.94;5038390;28;20025;-42
2023/09/22 07:37:17;;;;;;;1.65;0.80;;;14.80;99.90;;;14.32;100.00;96123.19;5037264;28;20057;-40
2023/09/22 07:39:43;;;;;;;0.88;0.70;;;14.80;99.90;;;14.51;100.00;96151.03;5037449;28;20155;-39
2023/09/22 07:42:09;;;;;;;1.00;0.70;;;14.80;99.90;;;14.50;100.00;96152.00;5037021;28;20473;-40
2023/09/22 07:44:36;;;;;;;3.63;0.90;;;14.80;99.90;;;14.48;100.00;96156.53;5033773;28;20102;-38
2023/09/22 07:47:09;;;;;;;1.40;0.70;;;14.80;99.90;;;14.33;100.00;96150.56;5036211;28;20091;-37
2023/09/22 07:49:40;;;;;;;1.00;0.60;;;14.70;99.90;;;14.41;100.00;96187.13;5038193;28;20032;-39
2023/09/22 07:52:10;;;;;;;1.75;0.80;;;14.70;99.90;;;14.39;100.00;96191.69;5036873;28;20029;-41
2023/09/22 07:54:36;;;;;;;0.88;0.70;;;14.70;99.90;;;14.42;100.00;96191.47;5039845;28;20505;-41
2023/09/22 07:57:02;;;;;;;1.17;0.63;;;14.70;99.90;;;14.41;100.00;96179.16;5034741;28;20037;-42
2023/09/22 07:59:31;;;;;;;1.75;0.77;;;14.70;99.90;;;14.37;100.00;96167.94;5036927;28;20051;-39
2023/09/22 08:02:02;;;;;;;1.80;0.73;;;14.70;99.90;;;14.31;100.00;96161.25;5041026;28;20029;-40
2023/09/22 08:04:29;;;;;;;3.05;0.90;;;14.70;99.90;;;14.41;100.00;96185.34;5040956;28;20068;-41
2023/09/22 08:06:55;;;;;;;1.77;0.75;;;14.70;99.90;;;14.43;100.00;96194.03;5038530;28;20483;-40
2023/09/22 08:09:21;;;;;;;1.42;0.80;;;14.70;99.90;;;14.45;100.00;96201.88;5037669;28;20521;-39
2023/09/22 08:11:47;;;;;;;1.08;0.80;;;14.70;99.90;;;14.47;100.00;96186.69;5036157;28;20074;-40
2023/09/22 08:14:13;;;;;;;1.40;0.70;;;14.80;99.90;;;14.51;100.00;96174.91;5041835;28;20067;-42
2023/09/22 08:16:39;;;;;;;1.35;0.70;;;14.90;99.90;;;14.72;100.00;96187.63;5040028;28;20425;-42
2023/09/22 08:19:10;;;;;;;1.08;0.70;;;15.00;99.90;;;14.90;100.00;96178.28;5040047;28;20056;-41
2023/09/22 08:21:39;;;;;;;1.10;0.70;;;15.20;99.90;;;15.15;100.00;96190.59;5041397;28;20029;-39
2023/09/22 08:24:07;;;;;;;3.33;0.82;;;15.40;99.90;;;15.37;100.00;96194.28;5043582;28;20028;-40
2023/09/22 08:26:33;;;;;;;1.77;0.80;;;15.70;99.90;;;15.65;100.00;96193.06;5022155;28;20033;-40
2023/09/22 08:29:00;;;;;;;4.32;0.80;;;16.00;99.90;;;15.98;100.00;96202.91;5037986;28;20530;-40
2023/09/22 08:31:26;;;;;;;3.20;0.65;;;16.30;99.90;;;16.35;100.00;96209.84;5044440;28;20059;-40
2023/09/22 08:33:53;;;;;;;0.63;0.50;;;16.70;99.90;;;16.54;100.00;96198.56;5037324;28;20033;-40
2023/09/22 08:36:19;;;;;;;1.33;0.60;;;16.90;99.90;;;16.54;100.00;96196.72;5037889;28;20056;-40
2023/09/22 08:38:47;;;;;;;7.30;0.80;;;16.90;99.90;;;16.45;100.00;96191.31;5038858;28;20041;-42
2023/09/22 08:41:13;;;;;;;1.30;0.65;;;16.90;99.90;;;16.42;100.00;96209.22;5032568;28;20962;-41
2023/09/22 08:43:45;;;;;;;2.20;0.85;;;16.90;99.90;;;16.51;100.00;96217.41;5021184;28;21150;-41
2023/09/22 08:46:11;;;;;;;1.57;0.57;;;16.80;99.90;;;16.57;100.00;96212.47;5036560;28;20360;-40
2023/09/22 08:48:37;;;;;;;3.50;0.80;;;16.90;99.90;;;16.64;100.00;96218.16;5039490;28;20698;-41
2023/09/22 08:51:04;;;;;;;2.88;0.90;;;17.00;99.90;;;16.67;100.00;96211.72;5039874;28;20025;-40
2023/09/22 08:53:29;;;;;;;1.40;0.77;;;17.00;99.90;;;16.69;100.00;96209.78;5040356;28;20490;-40
2023/09/22 08:55:56;;;;;;;1.25;0.70;;;17.00;99.90;;;16.75;100.00;96203.97;5036823;28;20025;-42
2023/09/22 08:58:22;;;;;;;0.90;0.70;;;17.00;99.90;;;16.74;100.00;96211.13;5040565;28;20505;-40
2023/09/22 09:00:51;;;;;;;2.50;0.70;;;17.10;99.90;;;16.74;100.00;96208.47;5035898;28;20029;-40
2023/09/22 09:03:21;;;;;;;1.38;0.80;;;17.10;99.90;;;16.74;100.00;96218.25;5037195;28;20044;-42
2023/09/22 09:05:47;;;;;;;5.18;1.15;;;17.10;99.90;;;16.78;100.00;96217.88;5033874;28;20064;-41
2023/09/22 09:08:23;;;;;;;0.85;0.70;;;17.10;99.90;;;16.78;100.00;96222.38;5038697;28;20074;-40
2023/09/22 09:10:50;;;;;;;2.00;0.73;;;17.10;99.90;;;16.76;100.00;96217.16;5034149;28;20029;-40
2023/09/22 09:13:24;;;;;;;3.13;1.08;;;17.10;99.90;;;16.75;100.00;96230.59;5035522;28;20508;-40
2023/09/22 09:15:54;;;;;;;1.80;0.70;;;17.00;99.90;;;16.80;100.00;96228.41;5035187;28;20036;-41
2023/09/22 09:18:24;;;;;;;1.70;0.63;;;17.00;99.90;;;16.82;100.00;96226.47;5036739;28;20484;-41
2023/09/22 09:21:11;;;;;;;1.58;0.70;;;17.10;99.90;;;16.86;100.00;96219.09;5032670;28;20040;-40
2023/09/22 09:23:38;;;;;;;3.75;0.90;;;17.10;99.90;;;16.83;100.00;96224.63;5039118;28;20098;-41
2023/09/22 09:26:04;;;;;;;0.88;0.70;;;17.10;99.90;;;16.85;100.00;96222.72;5017857;28;20025;-41
2023/09/22 09:28:30;;;;;;;0.93;0.70;;;17.10;99.90;;;16.81;100.00;96243.41;5038124;28;20085;-41
2023/09/22 09:30:58;;;;;;;1.83;0.70;;;17.10;99.90;;;16.70;100.00;96251.41;5037115;28;20080;-40
2023/09/22 09:33:27;;;;;;;1.15;0.50;;;17.00;99.90;;;16.53;100.00;96236.78;5021712;28;20029;-40
2023/09/22 09:35:55;;;;;;;1.80;0.80;;;16.90;99.90;;;16.59;100.00;96253.09;5038036;28;20107;-41
2023/09/22 09:38:28;;;;;;;1.48;0.90;;;16.90;99.90;;;16.40;100.00;96231.56;5032017;28;20043;-40
2023/09/22 09:40:56;;;;;;;0.88;0.60;;;16.80;99.90;;;16.40;100.00;96258.19;5030341;28;20039;-42
2023/09/22 09:43:22;;;;;;;1.98;0.70;;;16.70;99.90;;;16.29;100.00;96251.03;5027960;28;20033;-41
2023/09/22 09:45:57;;;;;;;1.50;1.13;;;16.60;99.90;;;16.25;100.00;96243.44;5019649;28;20665;-41
2023/09/22 09:48:24;;;;;;;2.20;1.00;;;16.50;99.90;;;16.41;100.00;96233.28;5036551;28;20029;-41
2023/09/22 09:50:53;;;;;;;3.97;1.05;;;16.60;99.90;;;16.84;100.00;96221.91;5035593;28;20029;-43
2023/09/22 09:53:44;;;;;;;3.60;1.23;;;17.10;99.90;;;17.40;100.00;96228.84;5035739;28;20039;-42
2023/09/22 09:56:17;;;;;;;3.20;0.90;;;17.60;99.90;;;17.54;100.00;96233.88;5030770;28;20037;-41
2023/09/22 09:58:45;;;;;;;2.05;0.80;;;17.90;99.90;;;17.49;100.00;96229.91;5032262;28;20071;-41
2023/09/22 10:01:12;;;;;;;3.00;0.80;;;17.80;99.90;;;17.44;100.00;96238.28;5028075;28;20656;-40
2023/09/22 10:03:42;;;;;;;5.13;3.13;;;17.80;99.90;;;17.35;100.00;96236.38;5030597;28;20047;-41
2023/09/22 10:06:17;;;;;;;2.72;1.60;;;17.70;99.90;;;17.42;100.00;96236.72;5032956;28;20037;-40
2023/09/22 10:08:43;;;;;;;5.20;2.42;;;17.70;99.90;;;17.47;100.00;96229.22;5017568;28;20029;-42
2023/09/22 10:11:13;;;;;;;1.48;0.85;;;17.80;99.90;;;17.69;100.00;96231.78;5030762;28;20033;-41
2023/09/22 10:13:39;;;;;;;7.55;1.02;;;17.90;99.90;;;17.80;100.00;96222.00;5032910;28;20032;-41